EDW264 LSZH-LPMA
Flight info
| Callsign | EDW264 |
|---|---|
| Flight time | N/A |
| Altitude | 35000 |
| Route | VEBIT T50 ROTOS Z669 ULMES DCT VADAR DCT NINTU DCT MEBAK DCT REPSI DCT LERGA DCT MINSO DCT NARAK DCT AGN DCT PIPOR DCT PPN DCT MIRPO DCT DGO DCT NEA DCT ARDID DCT FTM DCT NASAS DCT LIDRO |
| Aircraft | A320/M-SDE3FGHIRWY/LB1 |
Departure
| Time | 2026-04-26 16:59 |
|---|---|
| Airport | Zürich Airport (LSZH) |
Arrival
| Time | N/A |
|---|---|
| Airport | Cristiano Ronaldo International Airport (LPMA) |
| Time | Latitude | Longitude | Altitude | Speed | Heading |
|---|---|---|---|---|---|
| 2026-04-26 16:13 | 47.45031 | 8.55953 | 1397 ft | 0 kts | 6° |
| 2026-04-26 16:41 | 47.45025 | 8.55952 | 1406 ft | 3 kts | 8° |
| 2026-04-26 16:41 | 47.45003 | 8.55943 | 1403 ft | 3 kts | 28° |
| 2026-04-26 16:42 | 47.44984 | 8.55923 | 1401 ft | 3 kts | 48° |
| 2026-04-26 16:42 | 47.44969 | 8.55897 | 1406 ft | 3 kts | 36° |
| 2026-04-26 16:42 | 47.44959 | 8.55890 | 1405 ft | 3 kts | 322° |
| 2026-04-26 16:42 | 47.44944 | 8.55913 | 1400 ft | 3 kts | 284° |
| 2026-04-26 16:43 | 47.44942 | 8.55947 | 1399 ft | 3 kts | 274° |
| 2026-04-26 16:43 | 47.44941 | 8.55953 | 1406 ft | 0 kts | 275° |
| 2026-04-26 16:46 | 47.44941 | 8.55951 | 1406 ft | 1 kts | 275° |
| 2026-04-26 16:47 | 47.44942 | 8.55939 | 1405 ft | 2 kts | 276° |
| 2026-04-26 16:47 | 47.44945 | 8.55909 | 1401 ft | 3 kts | 276° |
| 2026-04-26 16:47 | 47.44947 | 8.55873 | 1400 ft | 4 kts | 277° |
| 2026-04-26 16:47 | 47.44950 | 8.55828 | 1400 ft | 5 kts | 275° |
| 2026-04-26 16:48 | 47.44954 | 8.55772 | 1397 ft | 6 kts | 276° |
| 2026-04-26 16:48 | 47.44959 | 8.55708 | 1403 ft | 6 kts | 276° |
| 2026-04-26 16:48 | 47.44983 | 8.55654 | 1400 ft | 7 kts | 330° |
| 2026-04-26 16:48 | 47.45031 | 8.55624 | 1399 ft | 8 kts | 337° |
| 2026-04-26 16:49 | 47.45083 | 8.55587 | 1400 ft | 10 kts | 334° |
| 2026-04-26 16:49 | 47.45158 | 8.55534 | 1402 ft | 14 kts | 335° |
| 2026-04-26 16:49 | 47.45246 | 8.55474 | 1404 ft | 14 kts | 335° |
| 2026-04-26 16:49 | 47.45335 | 8.55414 | 1399 ft | 14 kts | 335° |
| 2026-04-26 16:50 | 47.45430 | 8.55349 | 1400 ft | 15 kts | 334° |
| 2026-04-26 16:50 | 47.45530 | 8.55279 | 1403 ft | 16 kts | 334° |
| 2026-04-26 16:50 | 47.45635 | 8.55208 | 1402 ft | 17 kts | 335° |
| 2026-04-26 16:50 | 47.45712 | 8.55151 | 1399 ft | 9 kts | 333° |
| 2026-04-26 16:51 | 47.45774 | 8.55110 | 1398 ft | 10 kts | 335° |
| 2026-04-26 16:51 | 47.45843 | 8.55062 | 1396 ft | 14 kts | 334° |
| 2026-04-26 16:51 | 47.45931 | 8.55001 | 1400 ft | 14 kts | 335° |
| 2026-04-26 16:51 | 47.46008 | 8.54948 | 1400 ft | 11 kts | 335° |
| 2026-04-26 16:52 | 47.46096 | 8.54888 | 1406 ft | 18 kts | 335° |
| 2026-04-26 16:52 | 47.46136 | 8.54860 | 1397 ft | 19 kts | 335° |
| 2026-04-26 16:52 | 47.46296 | 8.54749 | 1403 ft | 20 kts | 335° |
| 2026-04-26 16:52 | 47.46430 | 8.54657 | 1396 ft | 22 kts | 334° |
| 2026-04-26 16:53 | 47.46570 | 8.54561 | 1401 ft | 23 kts | 335° |
| 2026-04-26 16:53 | 47.46710 | 8.54465 | 1394 ft | 19 kts | 335° |
| 2026-04-26 16:53 | 47.46840 | 8.54389 | 1396 ft | 20 kts | 336° |
| 2026-04-26 16:53 | 47.46962 | 8.54306 | 1406 ft | 18 kts | 335° |
| 2026-04-26 16:54 | 47.47076 | 8.54227 | 1403 ft | 18 kts | 335° |
| 2026-04-26 16:54 | 47.47177 | 8.54157 | 1410 ft | 14 kts | 335° |
| 2026-04-26 16:54 | 47.47264 | 8.54098 | 1408 ft | 14 kts | 335° |
| 2026-04-26 16:54 | 47.47347 | 8.54040 | 1400 ft | 12 kts | 335° |
| 2026-04-26 16:55 | 47.47429 | 8.53984 | 1397 ft | 15 kts | 335° |
| 2026-04-26 16:55 | 47.47525 | 8.53918 | 1400 ft | 15 kts | 335° |
| 2026-04-26 16:55 | 47.47613 | 8.53858 | 1405 ft | 12 kts | 335° |
| 2026-04-26 16:55 | 47.47677 | 8.53814 | 1403 ft | 9 kts | 335° |
| 2026-04-26 16:56 | 47.47706 | 8.53727 | 1407 ft | 3 kts | 251° |
| 2026-04-26 16:56 | 47.47687 | 8.53689 | 1404 ft | 8 kts | 223° |
| 2026-04-26 16:56 | 47.47636 | 8.53653 | 1402 ft | 7 kts | 199° |
| 2026-04-26 16:57 | 47.47598 | 8.53634 | 1404 ft | 4 kts | 199° |
| 2026-04-26 16:57 | 47.47579 | 8.53623 | 1403 ft | 2 kts | 200° |
| 2026-04-26 16:57 | 47.47523 | 8.53626 | 1409 ft | 6 kts | 155° |
| 2026-04-26 16:58 | 47.47416 | 8.53701 | 1404 ft | 47 kts | 154° |
| 2026-04-26 16:58 | 47.47105 | 8.53917 | 1402 ft | 98 kts | 154° |
| 2026-04-26 16:58 | 47.44750 | 8.55524 | 1896 ft | 194 kts | 152° |
| 2026-04-26 16:59 | 47.43491 | 8.56513 | 2513 ft | 215 kts | 137° |
| 2026-04-26 16:59 | 47.42601 | 8.60345 | 3493 ft | 188 kts | 70° |
| 2026-04-26 17:00 | 47.44869 | 8.62758 | 3496 ft | 256 kts | 5° |
| 2026-04-26 17:00 | 47.47926 | 8.60203 | 3840 ft | 274 kts | 295° |
| 2026-04-26 17:00 | 47.48160 | 8.57403 | 4558 ft | 278 kts | 263° |
| 2026-04-26 17:01 | 47.47644 | 8.54639 | 5341 ft | 282 kts | 239° |
| 2026-04-26 17:01 | 47.46322 | 8.52509 | 6180 ft | 282 kts | 220° |
| 2026-04-26 17:01 | 47.44979 | 8.50450 | 7003 ft | 282 kts | 233° |
| 2026-04-26 17:01 | 47.43872 | 8.48022 | 7227 ft | 281 kts | 239° |
| 2026-04-26 17:02 | 47.42916 | 8.45503 | 7719 ft | 282 kts | 242° |
| 2026-04-26 17:02 | 47.42002 | 8.42943 | 8503 ft | 282 kts | 242° |
| 2026-04-26 17:02 | 47.41080 | 8.40365 | 9315 ft | 282 kts | 242° |
| 2026-04-26 17:02 | 47.40160 | 8.37845 | 10106 ft | 283 kts | 241° |
| 2026-04-26 17:03 | 47.39210 | 8.35289 | 10796 ft | 284 kts | 241° |
| 2026-04-26 17:03 | 47.38256 | 8.32719 | 11520 ft | 285 kts | 242° |
| 2026-04-26 17:03 | 47.37313 | 8.30086 | 11851 ft | 293 kts | 243° |
| 2026-04-26 17:03 | 47.36379 | 8.27433 | 12022 ft | 292 kts | 243° |
| 2026-04-26 17:04 | 47.35439 | 8.24755 | 12667 ft | 294 kts | 244° |
| 2026-04-26 17:04 | 47.34507 | 8.22103 | 13327 ft | 297 kts | 244° |
| 2026-04-26 17:04 | 47.33517 | 8.19292 | 13493 ft | 318 kts | 244° |
| 2026-04-26 17:04 | 47.32472 | 8.16333 | 13887 ft | 329 kts | 244° |
| 2026-04-26 17:05 | 47.31401 | 8.13321 | 14421 ft | 333 kts | 243° |
| 2026-04-26 17:05 | 47.30318 | 8.10287 | 14986 ft | 336 kts | 243° |
| 2026-04-26 17:05 | 47.29235 | 8.07258 | 15542 ft | 338 kts | 244° |
| 2026-04-26 17:05 | 47.28139 | 8.04183 | 16104 ft | 341 kts | 244° |
| 2026-04-26 17:06 | 47.27031 | 8.01071 | 16644 ft | 344 kts | 245° |
| 2026-04-26 17:06 | 47.26081 | 7.97819 | 17180 ft | 346 kts | 249° |
| 2026-04-26 17:06 | 47.25165 | 7.94522 | 17735 ft | 348 kts | 249° |
| 2026-04-26 17:06 | 47.24252 | 7.91247 | 18279 ft | 351 kts | 249° |
| 2026-04-26 17:07 | 47.23317 | 7.87909 | 18787 ft | 353 kts | 249° |
| 2026-04-26 17:07 | 47.22372 | 7.84545 | 19261 ft | 356 kts | 249° |
| 2026-04-26 17:07 | 47.21421 | 7.81173 | 19717 ft | 358 kts | 249° |
| 2026-04-26 17:07 | 47.20463 | 7.77771 | 20202 ft | 361 kts | 250° |
| 2026-04-26 17:08 | 47.19501 | 7.74386 | 20646 ft | 363 kts | 247° |
| 2026-04-26 17:08 | 47.18237 | 7.71140 | 21084 ft | 369 kts | 237° |
| 2026-04-26 17:08 | 47.16647 | 7.68142 | 21527 ft | 373 kts | 234° |
| 2026-04-26 17:08 | 47.15025 | 7.65141 | 21974 ft | 375 kts | 234° |